createdAt,value
2022-12-06T00:01:38.860Z,86.47
2022-12-06T00:03:26.393Z,84.50
2022-12-06T00:05:13.561Z,88.68
2022-12-06T00:07:00.750Z,85.57
2022-12-06T00:08:48.920Z,87.82
2022-12-06T00:12:23.872Z,80.65
2022-12-06T00:14:12.272Z,90.75
2022-12-06T00:16:04.368Z,83.45
2022-12-06T00:17:51.580Z,99.40
2022-12-06T00:19:38.847Z,87.63
2022-12-06T00:21:34.880Z,84.00
2022-12-06T00:23:22.097Z,84.28
2022-12-06T00:25:09.563Z,83.50
2022-12-06T00:26:56.663Z,90.13
2022-12-06T00:28:44.388Z,90.45
2022-12-06T00:30:31.763Z,84.43
2022-12-06T00:32:19.815Z,83.32
2022-12-06T00:34:07.243Z,79.88
2022-12-06T00:36:01.695Z,90.38
2022-12-06T00:37:48.852Z,90.63
2022-12-06T00:39:36.107Z,102.63
2022-12-06T00:41:25.063Z,99.35
2022-12-06T00:43:12.300Z,101.38
2022-12-06T00:44:59.460Z,96.15
2022-12-06T00:46:46.972Z,90.13
2022-12-06T00:48:35.140Z,83.22
2022-12-06T00:50:22.350Z,82.05
2022-12-06T00:52:09.816Z,76.97
2022-12-06T00:53:57.265Z,80.68
2022-12-06T00:55:45.178Z,82.05
2022-12-06T00:57:32.651Z,83.70
2022-12-06T00:59:19.708Z,81.50
2022-12-06T01:01:12.772Z,87.38
2022-12-06T01:03:00.207Z,85.25
2022-12-06T01:04:47.744Z,88.03
2022-12-06T01:06:36.327Z,88.55
2022-12-06T01:08:23.733Z,79.90
2022-12-06T01:10:11.249Z,85.68
2022-12-06T01:11:59.041Z,83.65
2022-12-06T01:13:46.490Z,88.15
2022-12-06T01:15:37.087Z,88.75
2022-12-06T01:17:24.197Z,91.53
2022-12-06T01:19:12.767Z,91.80
2022-12-06T01:21:10.794Z,87.43
2022-12-06T01:22:57.994Z,86.13
2022-12-06T01:24:47.269Z,90.43
2022-12-06T01:26:36.071Z,87.80
2022-12-06T01:28:23.295Z,83.75
2022-12-06T01:30:10.923Z,85.00
2022-12-06T01:31:57.908Z,87.78
2022-12-06T01:33:45.330Z,79.97
2022-12-06T01:35:32.632Z,79.75
2022-12-06T01:37:19.989Z,81.85
2022-12-06T01:39:10.569Z,77.95
2022-12-06T01:40:58.437Z,86.65
2022-12-06T01:42:45.375Z,83.57
2022-12-06T01:44:50.832Z,88.32
2022-12-06T01:46:42.402Z,94.47
2022-12-06T01:48:29.711Z,99.72
2022-12-06T01:50:24.584Z,87.75
2022-12-06T01:52:13.276Z,103.57
2022-12-06T01:54:03.101Z,98.57
2022-12-06T01:55:50.259Z,97.60
2022-12-06T01:57:37.582Z,98.32
2022-12-06T01:59:29.185Z,102.25
2022-12-06T02:03:07.196Z,109.22
2022-12-06T02:04:54.716Z,119.10
2022-12-06T02:06:42.245Z,123.88
2022-12-06T02:08:30.272Z,111.30
2022-12-06T02:10:18.307Z,105.13
2022-12-06T02:13:59.077Z,104.70
2022-12-06T02:16:34.668Z,103.90
2022-12-06T02:18:30.739Z,91.65
2022-12-06T02:20:31.111Z,92.57
2022-12-06T02:22:24.094Z,95.15
2022-12-06T02:24:36.491Z,99.20
2022-12-06T02:26:39.352Z,88.43
2022-12-06T02:29:03.969Z,85.20
2022-12-06T02:31:07.955Z,89.57
2022-12-06T02:33:07.134Z,94.15
2022-12-06T02:35:00.400Z,99.47
2022-12-06T02:36:52.982Z,95.22
2022-12-06T02:38:49.830Z,96.30
2022-12-06T02:40:41.070Z,92.03
2022-12-06T02:42:55.951Z,90.45
2022-12-06T02:44:53.097Z,86.85
2022-12-06T02:46:41.560Z,87.85
2022-12-06T02:48:28.828Z,81.82
2022-12-06T02:50:20.801Z,86.38
2022-12-06T02:52:07.839Z,85.90
2022-12-06T02:53:57.361Z,81.32
2022-12-06T02:55:45.950Z,87.60
2022-12-06T02:57:43.141Z,87.38
2022-12-06T02:59:30.193Z,81.93
2022-12-06T03:01:52.356Z,83.88
2022-12-06T03:03:56.491Z,80.95
2022-12-06T03:06:01.721Z,86.25
2022-12-06T03:07:50.934Z,84.68
2022-12-06T03:10:14.898Z,85.18
2022-12-06T03:12:30.173Z,84.90
2022-12-06T03:14:24.663Z,81.68
2022-12-06T03:16:23.403Z,90.57
2022-12-06T03:18:22.896Z,90.45
2022-12-06T03:20:21.351Z,87.35
2022-12-06T03:22:39.382Z,85.53
2022-12-06T03:24:29.931Z,90.80
2022-12-06T03:26:21.964Z,87.07
2022-12-06T03:28:11.756Z,91.07
2022-12-06T03:30:02.202Z,86.07
2022-12-06T03:31:52.070Z,90.00
2022-12-06T03:33:49.244Z,92.85
2022-12-06T03:35:37.807Z,93.43
2022-12-06T03:37:28.201Z,86.75
2022-12-06T03:39:21.951Z,90.43
2022-12-06T03:41:10.806Z,94.97
2022-12-06T03:42:58.753Z,89.78
2022-12-06T03:44:47.377Z,97.88
2022-12-06T03:46:44.379Z,94.15
2022-12-06T03:48:39.018Z,95.65
2022-12-06T03:50:55.414Z,95.68
2022-12-06T03:52:45.471Z,101.82
2022-12-06T03:54:32.660Z,90.25
2022-12-06T03:56:21.470Z,95.35
2022-12-06T03:58:08.457Z,93.82
2022-12-06T03:59:56.011Z,91.00
2022-12-06T04:01:43.136Z,90.97
2022-12-06T04:03:30.415Z,93.40
2022-12-06T04:05:17.896Z,95.18
2022-12-06T04:07:05.040Z,93.18
2022-12-06T04:08:52.110Z,91.40
2022-12-06T04:10:39.347Z,96.88
2022-12-06T04:12:45.152Z,91.95
2022-12-06T04:14:39.449Z,93.78
2022-12-06T04:16:45.721Z,89.22
2022-12-06T04:18:32.695Z,95.20
2022-12-06T04:20:19.740Z,94.68
2022-12-06T04:22:25.751Z,93.13
2022-12-06T04:24:12.781Z,92.63
2022-12-06T04:26:00.319Z,91.30
2022-12-06T04:28:06.054Z,94.50
2022-12-06T04:30:11.670Z,94.32
2022-12-06T04:32:17.123Z,93.28
2022-12-06T04:34:22.952Z,90.05
2022-12-06T04:36:28.777Z,98.70
2022-12-06T04:38:34.253Z,92.57
2022-12-06T04:40:21.471Z,92.55
2022-12-06T04:42:27.643Z,101.30
2022-12-06T04:44:14.685Z,94.80
2022-12-06T04:46:02.018Z,101.55
2022-12-06T04:47:49.046Z,102.63
2022-12-06T04:49:37.164Z,101.13
2022-12-06T04:51:24.899Z,101.97
2022-12-06T04:53:12.930Z,104.10
2022-12-06T04:55:00.255Z,110.60
2022-12-06T04:56:47.961Z,100.97
2022-12-06T04:58:35.169Z,106.93
2022-12-06T05:00:22.309Z,106.35
2022-12-06T05:02:13.266Z,114.88
2022-12-06T05:04:00.627Z,115.40
2022-12-06T05:05:47.683Z,110.85
2022-12-06T05:07:35.747Z,115.70
2022-12-06T05:11:10.443Z,120.22
2022-12-06T05:12:57.758Z,119.57
2022-12-06T05:14:44.740Z,93.03
2022-12-06T05:16:31.932Z,117.25
2022-12-06T05:18:19.608Z,127.35
2022-12-06T05:20:07.382Z,124.40
2022-12-06T05:21:54.486Z,124.70
2022-12-06T05:23:42.426Z,115.88
2022-12-06T05:25:29.760Z,116.28
2022-12-06T05:27:16.781Z,112.47
2022-12-06T05:29:04.408Z,112.55
2022-12-06T05:30:51.730Z,105.60
2022-12-06T05:32:39.856Z,111.40
2022-12-06T05:34:27.190Z,111.70
2022-12-06T05:36:19.622Z,115.43
2022-12-06T05:38:06.678Z,120.82
2022-12-06T05:39:54.016Z,118.88
2022-12-06T05:41:41.087Z,118.70
2022-12-06T05:43:29.574Z,118.53
2022-12-06T05:45:16.888Z,132.48
2022-12-06T05:47:04.114Z,141.20
2022-12-06T05:48:51.200Z,132.07
2022-12-06T05:50:38.576Z,138.82
2022-12-06T05:52:25.667Z,129.63
2022-12-06T05:54:12.790Z,148.30
2022-12-06T05:56:11.761Z,159.38
2022-12-06T05:57:58.836Z,136.40
2022-12-06T05:59:45.817Z,125.67
2022-12-06T06:01:33.140Z,137.98
2022-12-06T06:03:20.203Z,144.68
2022-12-06T06:05:07.830Z,145.43
2022-12-06T06:08:42.067Z,156.10
2022-12-06T06:10:29.160Z,152.20
2022-12-06T06:12:16.515Z,152.93
2022-12-06T06:14:03.493Z,165.63
2022-12-06T06:15:50.886Z,161.63
2022-12-06T06:17:38.996Z,179.60
2022-12-06T06:21:13.917Z,200.50
2022-12-06T06:23:01.485Z,209.80
2022-12-06T06:24:49.039Z,271.90
2022-12-06T06:26:36.197Z,306.23
2022-12-06T06:28:24.100Z,261.73
2022-12-06T06:30:12.611Z,236.15
2022-12-06T06:31:59.786Z,409.50
2022-12-06T06:33:47.072Z,443.67
2022-12-06T06:35:34.349Z,305.25
2022-12-06T06:37:21.462Z,222.75
2022-12-06T06:39:08.733Z,209.18
2022-12-06T06:40:55.797Z,192.33
2022-12-06T06:42:42.771Z,206.70
2022-12-06T06:44:30.133Z,230.35
2022-12-06T06:46:19.412Z,238.50
2022-12-06T06:48:06.673Z,241.77
2022-12-06T06:49:53.898Z,248.95
2022-12-06T06:51:40.994Z,279.10
2022-12-06T06:53:28.495Z,246.68
2022-12-06T06:55:16.040Z,230.40
2022-12-06T06:57:03.169Z,259.92
2022-12-06T06:58:50.275Z,246.95
2022-12-06T07:00:37.607Z,261.73
2022-12-06T07:02:24.799Z,270.10
2022-12-06T07:04:11.887Z,219.77
2022-12-06T07:06:06.966Z,177.27
2022-12-06T07:07:54.656Z,175.27
2022-12-06T07:09:42.037Z,184.43
2022-12-06T07:11:29.502Z,183.70
2022-12-06T07:13:18.121Z,170.75
2022-12-06T07:15:06.217Z,167.00
2022-12-06T07:16:54.090Z,172.32
2022-12-06T07:18:42.110Z,166.73
2022-12-06T07:22:16.979Z,182.15
2022-12-06T07:24:04.212Z,174.88
2022-12-06T07:26:21.894Z,181.10
2022-12-06T07:28:09.251Z,170.73
2022-12-06T07:29:56.459Z,187.85
2022-12-06T07:31:43.544Z,186.13
2022-12-06T07:33:30.770Z,189.90
2022-12-06T07:35:17.867Z,138.30
2022-12-06T07:37:08.050Z,187.23
2022-12-06T07:38:57.369Z,202.55
2022-12-06T07:43:10.063Z,233.80
2022-12-06T07:45:04.628Z,242.68
2022-12-06T07:46:52.522Z,238.63
2022-12-06T07:48:39.822Z,262.25
2022-12-06T07:50:27.227Z,242.70
2022-12-06T07:52:14.289Z,246.97
2022-12-06T07:54:01.851Z,245.85
2022-12-06T07:57:42.950Z,241.63
2022-12-06T07:59:30.910Z,234.88
2022-12-06T08:01:19.036Z,220.23
2022-12-06T08:03:06.691Z,206.50
2022-12-06T08:04:54.954Z,220.68
2022-12-06T08:06:42.508Z,205.57
2022-12-06T08:08:31.672Z,221.10
2022-12-06T08:10:19.112Z,199.60
2022-12-06T08:12:07.582Z,198.48
2022-12-06T08:13:54.746Z,213.02
2022-12-06T08:15:41.996Z,200.20
2022-12-06T08:17:30.506Z,215.98
2022-12-06T08:19:17.939Z,189.18
2022-12-06T08:21:06.035Z,174.43
2022-12-06T08:22:53.354Z,151.15
2022-12-06T08:24:40.308Z,158.63
2022-12-06T08:26:27.483Z,140.73
2022-12-06T08:28:14.791Z,129.43
2022-12-06T08:30:02.445Z,137.68
2022-12-06T08:33:37.788Z,140.73
2022-12-06T08:35:24.989Z,136.32
2022-12-06T08:37:12.872Z,139.68
2022-12-06T08:39:01.079Z,143.98
2022-12-06T08:40:48.474Z,152.38
2022-12-06T08:42:35.727Z,152.57
2022-12-06T08:44:23.423Z,141.05
2022-12-06T08:46:10.470Z,133.70
2022-12-06T08:47:57.590Z,138.07
2022-12-06T08:49:45.250Z,132.27
2022-12-06T08:51:34.859Z,118.28
2022-12-06T08:53:22.006Z,130.23
2022-12-06T08:55:09.745Z,129.70
2022-12-06T08:56:56.958Z,133.27
2022-12-06T08:58:44.282Z,133.82
2022-12-06T09:00:31.609Z,141.00
2022-12-06T09:02:18.888Z,146.32
2022-12-06T09:04:08.564Z,151.60
2022-12-06T09:06:06.119Z,162.02
2022-12-06T09:07:53.466Z,177.80
2022-12-06T09:09:41.073Z,192.75
2022-12-06T09:11:28.403Z,197.52
2022-12-06T09:13:15.531Z,187.40
2022-12-06T09:15:02.760Z,189.85
2022-12-06T09:16:55.573Z,196.45
2022-12-06T09:18:44.297Z,200.13
2022-12-06T09:20:31.671Z,185.57
2022-12-06T09:22:18.981Z,178.98
2022-12-06T09:24:07.091Z,163.82
2022-12-06T09:27:42.429Z,156.60
2022-12-06T09:29:29.460Z,142.65
2022-12-06T09:31:17.880Z,160.00
2022-12-06T09:33:05.903Z,162.65
2022-12-06T09:34:53.136Z,193.82
2022-12-06T09:36:51.904Z,200.80
2022-12-06T09:38:40.882Z,182.55
2022-12-06T09:40:43.142Z,231.38
2022-12-06T09:42:49.794Z,230.00
2022-12-06T09:44:47.520Z,246.20
2022-12-06T09:46:43.011Z,237.20
2022-12-06T09:49:04.846Z,230.52
2022-12-06T09:50:58.309Z,180.23
2022-12-06T09:52:57.020Z,187.38
2022-12-06T09:55:16.140Z,171.93
2022-12-06T09:57:32.476Z,174.50
2022-12-06T10:00:11.421Z,169.38
2022-12-06T10:02:32.578Z,172.98
2022-12-06T10:04:26.448Z,174.77
2022-12-06T10:06:16.683Z,175.30
2022-12-06T10:08:39.218Z,182.65
2022-12-06T10:10:44.577Z,178.40
2022-12-06T10:12:34.663Z,181.15
2022-12-06T10:14:40.818Z,192.55
2022-12-06T10:17:01.569Z,214.38
2022-12-06T10:19:06.788Z,165.73
2022-12-06T10:21:04.456Z,157.88
2022-12-06T10:23:03.634Z,174.07
2022-12-06T10:24:56.601Z,218.60
2022-12-06T10:26:51.087Z,206.73
2022-12-06T10:29:01.000Z,222.95
2022-12-06T10:30:55.684Z,176.93
2022-12-06T10:32:54.275Z,186.52
2022-12-06T10:34:55.147Z,191.32
2022-12-06T10:36:51.372Z,178.52
2022-12-06T10:38:53.127Z,169.48
2022-12-06T10:41:11.225Z,173.10
2022-12-06T10:43:14.994Z,168.77
2022-12-06T10:45:55.158Z,162.75
2022-12-06T10:47:44.793Z,152.48
2022-12-06T10:49:57.602Z,168.48
2022-12-06T10:52:04.382Z,167.95
2022-12-06T10:53:59.605Z,167.50
2022-12-06T10:55:59.640Z,159.15
2022-12-06T10:58:08.253Z,157.65
2022-12-06T11:00:06.859Z,154.60
2022-12-06T11:02:01.921Z,145.45
2022-12-06T11:04:00.852Z,158.90
2022-12-06T11:06:14.415Z,149.23
2022-12-06T11:08:09.053Z,138.25
2022-12-06T11:09:57.604Z,156.05
2022-12-06T11:11:45.684Z,146.48
2022-12-06T11:13:41.009Z,136.25
2022-12-06T11:15:35.247Z,150.45
2022-12-06T11:17:31.762Z,167.75
2022-12-06T11:19:52.078Z,155.57
2022-12-06T11:21:43.578Z,140.68
2022-12-06T11:23:53.440Z,123.18
2022-12-06T11:26:02.955Z,123.55
2022-12-06T11:28:00.396Z,122.95
2022-12-06T11:29:50.075Z,120.47
2022-12-06T11:31:57.841Z,122.90
2022-12-06T11:35:33.610Z,107.22
2022-12-06T11:37:27.939Z,110.30
2022-12-06T11:39:16.245Z,105.57
2022-12-06T11:41:08.300Z,107.97
2022-12-06T11:42:59.083Z,111.50
2022-12-06T11:44:55.267Z,112.78
2022-12-06T11:46:42.612Z,118.00
2022-12-06T11:48:34.355Z,119.60
2022-12-06T11:50:23.070Z,107.00
2022-12-06T11:52:40.958Z,99.65
2022-12-06T11:54:33.619Z,104.53
2022-12-06T11:56:38.173Z,114.13
2022-12-06T11:58:40.318Z,131.57
2022-12-06T12:00:30.865Z,131.93
2022-12-06T12:02:32.073Z,189.75
2022-12-06T12:04:28.304Z,140.60
2022-12-06T12:06:28.859Z,148.60
2022-12-06T12:08:20.332Z,127.00
2022-12-06T12:10:24.492Z,134.32
2022-12-06T12:12:17.976Z,113.65
2022-12-06T12:14:15.798Z,126.75
2022-12-06T12:16:26.720Z,117.97
2022-12-06T12:18:28.693Z,163.05
2022-12-06T12:20:30.410Z,134.45
2022-12-06T12:22:43.757Z,144.65
2022-12-06T12:25:17.827Z,152.10
2022-12-06T12:27:01.009Z,144.40
2022-12-06T12:29:13.652Z,127.65
2022-12-06T12:31:19.650Z,120.13
2022-12-06T12:33:07.060Z,138.02
2022-12-06T12:34:54.168Z,123.03
2022-12-06T12:36:51.167Z,128.18
2022-12-06T12:38:42.744Z,122.30
2022-12-06T12:40:36.875Z,122.75
2022-12-06T12:42:33.025Z,126.82
2022-12-06T12:44:40.184Z,134.82
2022-12-06T12:46:29.204Z,119.40
2022-12-06T12:48:26.090Z,123.43
2022-12-06T12:50:20.380Z,119.82
2022-12-06T12:52:28.777Z,119.32
2022-12-06T12:54:24.101Z,120.90
2022-12-06T12:56:19.605Z,106.53
2022-12-06T12:58:11.254Z,118.60
2022-12-06T12:59:58.835Z,123.32
2022-12-06T13:02:05.433Z,117.18
2022-12-06T13:03:57.465Z,111.18
2022-12-06T13:05:49.438Z,112.10
2022-12-06T13:07:41.475Z,127.95
2022-12-06T13:09:38.504Z,106.63
2022-12-06T13:11:27.171Z,138.88
2022-12-06T13:13:22.971Z,120.55
2022-12-06T13:15:29.054Z,106.97
2022-12-06T13:17:17.739Z,125.65
2022-12-06T13:19:05.516Z,118.75
2022-12-06T13:20:55.884Z,117.55
2022-12-06T13:22:45.575Z,121.13
2022-12-06T13:24:34.042Z,124.55
2022-12-06T13:26:29.330Z,136.32
2022-12-06T13:28:21.244Z,131.00
2022-12-06T13:30:18.690Z,132.07
2022-12-06T13:32:18.555Z,127.10
2022-12-06T13:34:18.311Z,126.10
2022-12-06T13:36:11.040Z,131.23
2022-12-06T13:38:24.346Z,119.22
2022-12-06T13:40:35.677Z,142.10
2022-12-06T13:42:41.499Z,123.00
2022-12-06T13:44:41.909Z,119.57
2022-12-06T13:46:31.336Z,115.18
2022-12-06T13:48:24.549Z,122.68
2022-12-06T13:50:17.575Z,136.43
2022-12-06T13:52:05.042Z,118.95
2022-12-06T13:54:07.254Z,122.70
2022-12-06T13:56:01.053Z,153.32
2022-12-06T13:57:48.650Z,162.18
2022-12-06T13:59:39.269Z,134.30
2022-12-06T14:01:47.086Z,133.35
2022-12-06T14:03:34.560Z,141.98
2022-12-06T14:07:45.684Z,137.65
2022-12-06T14:09:38.492Z,131.40
2022-12-06T14:11:36.592Z,136.40
2022-12-06T14:13:27.731Z,156.18
2022-12-06T14:15:20.022Z,185.60
2022-12-06T14:17:32.049Z,160.23
2022-12-06T14:19:42.663Z,152.77
2022-12-06T14:21:42.159Z,126.22
2022-12-06T14:23:32.378Z,122.97
2022-12-06T14:25:25.559Z,126.00
2022-12-06T14:27:16.007Z,127.95
2022-12-06T14:29:03.231Z,120.28
2022-12-06T14:30:51.318Z,122.03
2022-12-06T14:34:31.514Z,113.50
2022-12-06T14:36:26.477Z,134.13
2022-12-06T14:38:28.450Z,125.35
2022-12-06T14:41:03.495Z,143.02
2022-12-06T14:43:03.733Z,141.55
2022-12-06T14:45:00.501Z,145.77
2022-12-06T14:46:50.191Z,155.02
2022-12-06T14:48:56.624Z,136.02
2022-12-06T14:50:52.035Z,125.60
2022-12-06T14:52:59.237Z,122.50
2022-12-06T14:54:47.034Z,144.90
2022-12-06T14:56:36.990Z,163.25
2022-12-06T14:58:27.895Z,162.77
2022-12-06T15:00:26.274Z,142.52
2022-12-06T15:02:25.465Z,98.53
2022-12-06T15:04:26.004Z,106.25
2022-12-06T15:06:25.519Z,106.85
2022-12-06T15:08:34.421Z,99.13
2022-12-06T15:10:29.886Z,113.15
2022-12-06T15:12:41.476Z,100.82
2022-12-06T15:14:35.219Z,109.18
2022-12-06T15:16:22.818Z,114.30
2022-12-06T15:18:30.037Z,119.00
2022-12-06T15:20:17.484Z,122.60
2022-12-06T15:22:17.740Z,117.40
2022-12-06T15:24:28.413Z,110.95
2022-12-06T15:26:16.020Z,122.65
2022-12-06T15:28:03.100Z,111.50
2022-12-06T15:29:50.694Z,115.00
2022-12-06T15:31:37.981Z,108.97
2022-12-06T15:33:26.332Z,103.38
2022-12-06T15:35:18.572Z,104.20
2022-12-06T15:39:13.470Z,113.60
2022-12-06T15:41:00.845Z,124.75
2022-12-06T15:42:48.122Z,134.02
2022-12-06T15:44:35.451Z,133.02
2022-12-06T15:46:26.065Z,152.25
2022-12-06T15:48:13.265Z,149.50
2022-12-06T15:50:01.931Z,143.37
2022-12-06T15:51:49.875Z,151.57
2022-12-06T15:53:37.020Z,164.88
2022-12-06T15:55:24.268Z,142.00
2022-12-06T15:57:11.669Z,150.32
2022-12-06T15:58:58.864Z,153.95
2022-12-06T16:00:47.397Z,135.95
2022-12-06T16:02:35.167Z,124.22
2022-12-06T16:04:24.882Z,132.50
2022-12-06T16:06:19.564Z,113.40
2022-12-06T16:08:07.169Z,110.93
2022-12-06T16:09:57.189Z,107.75
2022-12-06T16:11:45.331Z,108.25
2022-12-06T16:13:32.776Z,115.90
2022-12-06T16:15:20.072Z,112.57
2022-12-06T16:17:11.327Z,88.10
2022-12-06T16:18:58.775Z,97.13
2022-12-06T16:20:46.782Z,99.13
2022-12-06T16:22:52.833Z,108.40
2022-12-06T16:24:40.617Z,100.33
2022-12-06T16:26:30.227Z,97.72
2022-12-06T16:28:17.857Z,83.55
2022-12-06T16:30:06.601Z,98.20
2022-12-06T16:31:54.547Z,99.07
2022-12-06T16:33:42.019Z,92.63
2022-12-06T16:35:29.566Z,107.18
2022-12-06T16:37:18.061Z,95.57
2022-12-06T16:39:06.677Z,90.07
2022-12-06T16:41:02.197Z,69.55
2022-12-06T16:42:54.551Z,70.45
2022-12-06T16:44:51.170Z,67.65
2022-12-06T16:46:38.995Z,66.82
2022-12-06T16:48:27.248Z,62.60
2022-12-06T16:50:27.045Z,64.45
2022-12-06T16:52:14.525Z,69.93
2022-12-06T16:54:03.203Z,67.75
2022-12-06T16:55:50.289Z,67.18
2022-12-06T16:57:37.747Z,67.25
2022-12-06T16:59:24.816Z,65.63
2022-12-06T17:01:23.434Z,69.57
2022-12-06T17:05:03.172Z,70.07
2022-12-06T17:06:50.547Z,75.03
2022-12-06T17:08:38.267Z,73.07
2022-12-06T17:10:25.430Z,79.25
2022-12-06T17:12:15.548Z,83.40
2022-12-06T17:14:03.468Z,81.57
2022-12-06T17:15:50.808Z,86.93
2022-12-06T17:17:38.214Z,92.22
2022-12-06T17:19:28.201Z,92.03
2022-12-06T17:21:17.301Z,85.82
2022-12-06T17:23:07.819Z,100.38
2022-12-06T17:24:55.162Z,92.40
2022-12-06T17:26:42.920Z,106.18
2022-12-06T17:28:30.076Z,97.43
2022-12-06T17:30:17.868Z,100.65
2022-12-06T17:32:05.378Z,97.03
2022-12-06T17:33:52.875Z,93.32
2022-12-06T17:35:40.271Z,93.75
2022-12-06T17:37:27.425Z,110.30
2022-12-06T17:39:17.231Z,112.30
2022-12-06T17:41:39.413Z,110.22
2022-12-06T17:43:26.627Z,90.57
2022-12-06T17:45:14.300Z,89.45
2022-12-06T17:47:02.381Z,76.95
2022-12-06T17:48:49.956Z,79.03
2022-12-06T17:50:37.393Z,85.45
2022-12-06T17:52:24.901Z,88.57
2022-12-06T17:54:13.513Z,108.55
2022-12-06T17:56:23.327Z,104.10
2022-12-06T17:58:10.774Z,98.72
2022-12-06T17:59:58.005Z,90.10
2022-12-06T18:02:16.558Z,87.53
2022-12-06T18:03:57.620Z,89.38
2022-12-06T18:05:44.987Z,82.53
2022-12-06T18:07:32.643Z,76.90
2022-12-06T18:13:01.423Z,52.22
2022-12-06T18:14:50.366Z,59.40
2022-12-06T18:16:40.333Z,61.00
2022-12-06T18:18:28.247Z,57.88
2022-12-06T18:20:15.875Z,65.07
2022-12-06T18:22:03.497Z,72.95
2022-12-06T18:24:19.822Z,85.10
2022-12-06T18:26:03.457Z,72.05
2022-12-06T18:27:50.718Z,69.75
2022-12-06T18:29:38.118Z,66.00
2022-12-06T18:31:27.500Z,58.58
2022-12-06T18:33:19.334Z,71.22
2022-12-06T18:35:09.013Z,59.58
2022-12-06T18:36:56.922Z,52.78
2022-12-06T18:38:44.576Z,49.53
2022-12-06T18:42:20.644Z,46.42
2022-12-06T18:44:08.730Z,44.38
2022-12-06T18:46:01.993Z,46.00
2022-12-06T18:47:49.583Z,45.80
2022-12-06T18:49:36.676Z,55.80
2022-12-06T18:51:26.543Z,48.33
2022-12-06T18:53:13.996Z,57.97
2022-12-06T18:55:01.893Z,54.33
2022-12-06T18:56:49.332Z,48.38
2022-12-06T18:58:37.045Z,41.40
2022-12-06T19:00:24.305Z,45.13
2022-12-06T19:02:15.013Z,42.90
2022-12-06T19:04:03.998Z,43.78
2022-12-06T19:06:02.805Z,41.83
2022-12-06T19:07:51.199Z,40.75
2022-12-06T19:09:39.014Z,39.60
2022-12-06T19:11:29.398Z,39.40
2022-12-06T19:13:16.662Z,45.10
2022-12-06T19:15:04.411Z,46.22
2022-12-06T19:18:39.658Z,56.00
2022-12-06T19:20:28.037Z,45.42
2022-12-06T19:24:07.235Z,46.47
2022-12-06T19:26:02.542Z,47.03
2022-12-06T19:27:49.900Z,52.55
2022-12-06T19:29:37.833Z,54.92
2022-12-06T19:31:25.611Z,51.00
2022-12-06T19:33:13.512Z,46.45
2022-12-06T19:35:08.149Z,44.35
2022-12-06T19:36:59.670Z,40.35
2022-12-06T19:38:48.685Z,44.25
2022-12-06T19:40:41.658Z,43.72
2022-12-06T19:42:47.844Z,48.00
2022-12-06T19:44:35.653Z,42.70
2022-12-06T19:48:14.829Z,41.08
2022-12-06T19:50:03.465Z,43.30
2022-12-06T19:51:52.223Z,42.20
2022-12-06T19:53:41.895Z,44.05
2022-12-06T19:55:29.814Z,49.13
2022-12-06T19:57:17.646Z,60.28
2022-12-06T19:59:11.810Z,47.47
2022-12-06T20:01:00.050Z,43.15
2022-12-06T20:02:47.800Z,35.92
2022-12-06T20:04:39.721Z,42.65
2022-12-06T20:06:28.716Z,42.28
2022-12-06T20:08:17.061Z,43.53
2022-12-06T20:10:05.989Z,36.97
2022-12-06T20:12:03.469Z,39.67
2022-12-06T20:15:39.515Z,40.38
2022-12-06T20:17:27.300Z,42.63
2022-12-06T20:19:16.580Z,39.50
2022-12-06T20:21:05.285Z,38.40
2022-12-06T20:22:54.200Z,42.85
2022-12-06T20:24:41.675Z,45.65
2022-12-06T20:28:18.349Z,40.25
2022-12-06T20:30:06.701Z,41.83
2022-12-06T20:31:57.900Z,49.50
2022-12-06T20:33:46.174Z,43.75
2022-12-06T20:35:38.263Z,38.75
2022-12-06T20:37:26.040Z,38.28
2022-12-06T20:39:23.898Z,39.95
2022-12-06T20:41:24.194Z,41.58
2022-12-06T20:43:11.829Z,46.70
2022-12-06T20:44:59.193Z,44.22
2022-12-06T20:46:48.362Z,42.67
2022-12-06T20:48:37.073Z,52.55
2022-12-06T20:50:24.299Z,48.25
2022-12-06T20:52:11.527Z,44.17
2022-12-06T20:54:01.888Z,45.67
2022-12-06T20:55:49.350Z,45.35
2022-12-06T20:57:38.069Z,46.13
2022-12-06T20:59:25.674Z,42.30
2022-12-06T21:01:19.348Z,41.53
2022-12-06T21:03:06.867Z,43.53
2022-12-06T21:04:54.307Z,40.58
2022-12-06T21:06:42.070Z,46.92
2022-12-06T21:08:29.792Z,46.42
2022-12-06T21:10:17.343Z,49.90
2022-12-06T21:12:04.695Z,41.88
2022-12-06T21:13:54.909Z,40.25
2022-12-06T21:15:42.218Z,43.03
2022-12-06T21:17:32.914Z,49.80
2022-12-06T21:19:20.181Z,44.70
2022-12-06T21:21:07.689Z,42.92
2022-12-06T21:22:54.675Z,40.53
2022-12-06T21:24:41.801Z,42.37
2022-12-06T21:26:30.290Z,43.97
2022-12-06T21:28:17.374Z,37.85
2022-12-06T21:30:05.203Z,42.63
2022-12-06T21:31:52.626Z,46.80
2022-12-06T21:33:39.769Z,41.63
2022-12-06T21:35:26.870Z,55.75
2022-12-06T21:37:16.673Z,66.25
2022-12-06T21:39:04.494Z,57.60
2022-12-06T21:40:57.466Z,56.13
2022-12-06T21:42:48.155Z,60.33
2022-12-06T21:44:35.162Z,61.83
2022-12-06T21:46:26.932Z,59.50
2022-12-06T21:48:14.273Z,62.50
2022-12-06T21:50:01.669Z,74.78
2022-12-06T21:51:49.041Z,62.42
2022-12-06T21:53:37.412Z,50.72
2022-12-06T21:55:24.763Z,56.50
2022-12-06T21:57:11.894Z,56.65
2022-12-06T21:59:01.190Z,59.83
2022-12-06T22:00:48.433Z,50.00
2022-12-06T22:02:35.469Z,54.95
2022-12-06T22:04:22.885Z,53.95
2022-12-06T22:06:11.912Z,48.67
2022-12-06T22:07:59.451Z,47.53
2022-12-06T22:09:47.295Z,55.03
2022-12-06T22:11:35.188Z,60.05
2022-12-06T22:13:22.316Z,62.22
2022-12-06T22:15:10.066Z,50.85
2022-12-06T22:16:57.156Z,49.70
2022-12-06T22:18:46.354Z,48.67
2022-12-06T22:20:33.935Z,45.83
2022-12-06T22:22:20.998Z,52.85
2022-12-06T22:24:08.340Z,36.07
2022-12-06T22:25:55.715Z,46.15
2022-12-06T22:27:42.712Z,47.93
2022-12-06T22:29:29.998Z,45.92
2022-12-06T22:31:23.083Z,49.40
2022-12-06T22:33:10.349Z,45.33
2022-12-06T22:34:57.341Z,45.90
2022-12-06T22:36:44.725Z,49.08
2022-12-06T22:38:31.808Z,47.83
2022-12-06T22:40:18.945Z,40.42
2022-12-06T22:42:06.248Z,45.67
2022-12-06T22:43:58.343Z,43.45
2022-12-06T22:45:45.328Z,44.00
2022-12-06T22:47:32.663Z,44.03
2022-12-06T22:49:19.710Z,42.03
2022-12-06T22:51:22.022Z,44.47
2022-12-06T22:53:09.285Z,48.70
2022-12-06T22:54:56.419Z,46.10
2022-12-06T22:56:48.679Z,47.80
2022-12-06T22:58:36.702Z,52.38
2022-12-06T23:00:23.841Z,50.22
2022-12-06T23:02:10.882Z,46.33
2022-12-06T23:04:00.246Z,44.75
2022-12-06T23:05:47.368Z,44.63
2022-12-06T23:07:34.529Z,50.07
2022-12-06T23:09:21.894Z,45.88
2022-12-06T23:11:12.680Z,52.87
2022-12-06T23:12:59.811Z,56.58
2022-12-06T23:14:47.005Z,54.78
2022-12-06T23:16:35.126Z,55.70
2022-12-06T23:18:22.165Z,55.47
2022-12-06T23:20:09.861Z,57.67
2022-12-06T23:21:56.907Z,56.38
2022-12-06T23:23:49.649Z,64.57
2022-12-06T23:25:36.854Z,60.38
2022-12-06T23:27:23.847Z,57.50
2022-12-06T23:29:11.725Z,61.63
2022-12-06T23:31:11.561Z,66.55
2022-12-06T23:32:58.615Z,65.53
2022-12-06T23:34:45.734Z,63.07
2022-12-06T23:36:34.774Z,61.80
2022-12-06T23:38:21.735Z,63.53
2022-12-06T23:40:09.352Z,63.27
2022-12-06T23:41:57.078Z,57.58
2022-12-06T23:43:44.414Z,61.13
2022-12-06T23:45:31.819Z,59.42
2022-12-06T23:47:19.219Z,55.40
2022-12-06T23:49:07.290Z,57.22
2022-12-06T23:51:02.721Z,51.53
2022-12-06T23:52:50.018Z,52.33
2022-12-06T23:54:37.453Z,55.63
2022-12-06T23:56:29.776Z,54.95
2022-12-06T23:58:17.049Z,56.90
